sensor_id;sensor_type;location;lat;lon;timestamp;P1;durP1;ratioP1;P2;durP2;ratioP2
51901;SDS011;37929;53.218;6.548;2023-04-06T00:01:37;7.93;;;5.30;;
51901;SDS011;37929;53.218;6.548;2023-04-06T00:04:03;9.50;;;5.70;;
51901;SDS011;37929;53.218;6.548;2023-04-06T00:06:29;8.75;;;5.80;;
51901;SDS011;37929;53.218;6.548;2023-04-06T00:08:55;10.70;;;6.10;;
51901;SDS011;37929;53.218;6.548;2023-04-06T00:11:21;10.15;;;5.88;;
51901;SDS011;37929;53.218;6.548;2023-04-06T00:13:47;9.68;;;5.82;;
51901;SDS011;37929;53.218;6.548;2023-04-06T00:16:13;9.38;;;6.00;;
51901;SDS011;37929;53.218;6.548;2023-04-06T00:18:39;9.23;;;6.32;;
51901;SDS011;37929;53.218;6.548;2023-04-06T00:21:06;9.30;;;5.85;;
51901;SDS011;37929;53.218;6.548;2023-04-06T00:23:31;9.85;;;6.22;;
51901;SDS011;37929;53.218;6.548;2023-04-06T00:25:57;8.55;;;5.93;;
51901;SDS011;37929;53.218;6.548;2023-04-06T00:28:23;10.63;;;5.75;;
51901;SDS011;37929;53.218;6.548;2023-04-06T00:30:54;9.18;;;6.40;;
51901;SDS011;37929;53.218;6.548;2023-04-06T00:33:20;9.18;;;6.32;;
51901;SDS011;37929;53.218;6.548;2023-04-06T00:35:47;10.85;;;6.07;;
51901;SDS011;37929;53.218;6.548;2023-04-06T00:38:13;10.07;;;6.15;;
51901;SDS011;37929;53.218;6.548;2023-04-06T00:40:40;9.80;;;5.78;;
51901;SDS011;37929;53.218;6.548;2023-04-06T00:43:06;9.00;;;5.78;;
51901;SDS011;37929;53.218;6.548;2023-04-06T00:45:34;10.25;;;6.75;;
51901;SDS011;37929;53.218;6.548;2023-04-06T00:48:00;10.95;;;6.38;;
51901;SDS011;37929;53.218;6.548;2023-04-06T00:50:26;9.57;;;6.05;;
51901;SDS011;37929;53.218;6.548;2023-04-06T00:52:53;8.93;;;5.40;;
51901;SDS011;37929;53.218;6.548;2023-04-06T00:55:19;8.90;;;5.93;;
51901;SDS011;37929;53.218;6.548;2023-04-06T00:57:46;8.48;;;5.60;;
51901;SDS011;37929;53.218;6.548;2023-04-06T01:00:12;10.88;;;6.28;;
51901;SDS011;37929;53.218;6.548;2023-04-06T01:02:38;13.98;;;6.22;;
51901;SDS011;37929;53.218;6.548;2023-04-06T01:05:04;9.02;;;6.05;;
51901;SDS011;37929;53.218;6.548;2023-04-06T01:07:31;10.20;;;5.93;;
51901;SDS011;37929;53.218;6.548;2023-04-06T01:09:56;10.07;;;5.97;;
51901;SDS011;37929;53.218;6.548;2023-04-06T01:12:23;11.77;;;6.35;;
51901;SDS011;37929;53.218;6.548;2023-04-06T01:14:49;8.70;;;5.90;;
51901;SDS011;37929;53.218;6.548;2023-04-06T01:17:15;9.05;;;6.20;;
51901;SDS011;37929;53.218;6.548;2023-04-06T01:19:41;10.95;;;6.32;;
51901;SDS011;37929;53.218;6.548;2023-04-06T01:22:07;10.10;;;5.60;;
51901;SDS011;37929;53.218;6.548;2023-04-06T01:24:33;10.48;;;5.97;;
51901;SDS011;37929;53.218;6.548;2023-04-06T01:26:59;8.75;;;6.15;;
51901;SDS011;37929;53.218;6.548;2023-04-06T01:29:26;10.32;;;6.05;;
51901;SDS011;37929;53.218;6.548;2023-04-06T01:31:52;9.75;;;6.10;;
51901;SDS011;37929;53.218;6.548;2023-04-06T01:34:17;9.38;;;5.85;;
51901;SDS011;37929;53.218;6.548;2023-04-06T01:36:43;9.15;;;6.15;;
51901;SDS011;37929;53.218;6.548;2023-04-06T01:39:09;7.22;;;5.68;;
51901;SDS011;37929;53.218;6.548;2023-04-06T01:41:35;8.85;;;5.78;;
51901;SDS011;37929;53.218;6.548;2023-04-06T01:44:01;7.93;;;5.78;;
51901;SDS011;37929;53.218;6.548;2023-04-06T01:46:27;9.20;;;5.78;;
51901;SDS011;37929;53.218;6.548;2023-04-06T01:48:53;9.43;;;6.25;;
51901;SDS011;37929;53.218;6.548;2023-04-06T01:51:19;9.27;;;6.07;;
51901;SDS011;37929;53.218;6.548;2023-04-06T01:53:48;7.43;;;5.18;;
51901;SDS011;37929;53.218;6.548;2023-04-06T01:56:14;10.95;;;6.07;;
51901;SDS011;37929;53.218;6.548;2023-04-06T01:58:40;9.10;;;6.10;;
51901;SDS011;37929;53.218;6.548;2023-04-06T02:01:06;8.45;;;5.93;;
51901;SDS011;37929;53.218;6.548;2023-04-06T02:03:31;9.40;;;5.80;;
51901;SDS011;37929;53.218;6.548;2023-04-06T02:05:57;11.32;;;5.68;;
51901;SDS011;37929;53.218;6.548;2023-04-06T02:08:23;11.10;;;6.60;;
51901;SDS011;37929;53.218;6.548;2023-04-06T02:10:49;10.32;;;5.90;;
51901;SDS011;37929;53.218;6.548;2023-04-06T02:13:14;11.55;;;6.18;;
51901;SDS011;37929;53.218;6.548;2023-04-06T02:15:40;8.77;;;6.30;;
51901;SDS011;37929;53.218;6.548;2023-04-06T02:18:06;10.13;;;6.32;;
51901;SDS011;37929;53.218;6.548;2023-04-06T02:20:32;12.70;;;6.50;;
51901;SDS011;37929;53.218;6.548;2023-04-06T02:22:58;8.82;;;6.35;;
51901;SDS011;37929;53.218;6.548;2023-04-06T02:25:26;8.27;;;5.93;;
51901;SDS011;37929;53.218;6.548;2023-04-06T02:27:53;9.02;;;6.35;;
51901;SDS011;37929;53.218;6.548;2023-04-06T02:30:19;9.15;;;6.80;;
51901;SDS011;37929;53.218;6.548;2023-04-06T02:32:45;8.32;;;6.13;;
51901;SDS011;37929;53.218;6.548;2023-04-06T02:35:10;10.18;;;6.18;;
51901;SDS011;37929;53.218;6.548;2023-04-06T02:37:36;12.60;;;6.75;;
51901;SDS011;37929;53.218;6.548;2023-04-06T02:40:02;8.57;;;6.60;;
51901;SDS011;37929;53.218;6.548;2023-04-06T02:42:29;11.57;;;6.55;;
51901;SDS011;37929;53.218;6.548;2023-04-06T02:44:57;8.60;;;6.28;;
51901;SDS011;37929;53.218;6.548;2023-04-06T02:47:23;9.98;;;6.93;;
51901;SDS011;37929;53.218;6.548;2023-04-06T02:49:49;8.30;;;6.07;;
51901;SDS011;37929;53.218;6.548;2023-04-06T02:52:14;10.20;;;6.25;;
51901;SDS011;37929;53.218;6.548;2023-04-06T02:54:42;9.23;;;5.82;;
51901;SDS011;37929;53.218;6.548;2023-04-06T02:57:08;10.82;;;6.25;;
51901;SDS011;37929;53.218;6.548;2023-04-06T02:59:34;10.18;;;5.85;;
51901;SDS011;37929;53.218;6.548;2023-04-06T03:02:00;8.27;;;6.13;;
51901;SDS011;37929;53.218;6.548;2023-04-06T03:04:26;8.88;;;6.47;;
51901;SDS011;37929;53.218;6.548;2023-04-06T03:06:53;10.80;;;6.80;;
51901;SDS011;37929;53.218;6.548;2023-04-06T03:09:20;11.45;;;6.32;;
51901;SDS011;37929;53.218;6.548;2023-04-06T03:11:46;10.77;;;6.28;;
51901;SDS011;37929;53.218;6.548;2023-04-06T03:14:11;10.80;;;6.55;;
51901;SDS011;37929;53.218;6.548;2023-04-06T03:16:37;10.75;;;6.70;;
51901;SDS011;37929;53.218;6.548;2023-04-06T03:19:03;9.52;;;6.35;;
51901;SDS011;37929;53.218;6.548;2023-04-06T03:21:29;8.30;;;6.00;;
51901;SDS011;37929;53.218;6.548;2023-04-06T03:23:55;9.30;;;6.57;;
51901;SDS011;37929;53.218;6.548;2023-04-06T03:26:20;11.38;;;7.00;;
51901;SDS011;37929;53.218;6.548;2023-04-06T03:28:47;10.43;;;6.88;;
51901;SDS011;37929;53.218;6.548;2023-04-06T03:31:13;9.95;;;6.38;;
51901;SDS011;37929;53.218;6.548;2023-04-06T03:33:38;12.38;;;7.82;;
51901;SDS011;37929;53.218;6.548;2023-04-06T03:36:04;8.75;;;6.28;;
51901;SDS011;37929;53.218;6.548;2023-04-06T03:38:31;9.20;;;6.38;;
51901;SDS011;37929;53.218;6.548;2023-04-06T03:40:57;12.18;;;7.20;;
51901;SDS011;37929;53.218;6.548;2023-04-06T03:43:23;11.05;;;6.82;;
51901;SDS011;37929;53.218;6.548;2023-04-06T03:45:49;11.77;;;6.93;;
51901;SDS011;37929;53.218;6.548;2023-04-06T03:48:14;10.82;;;7.05;;
51901;SDS011;37929;53.218;6.548;2023-04-06T03:50:40;9.80;;;6.40;;
51901;SDS011;37929;53.218;6.548;2023-04-06T03:53:06;11.63;;;6.28;;
51901;SDS011;37929;53.218;6.548;2023-04-06T03:55:32;10.18;;;6.05;;
51901;SDS011;37929;53.218;6.548;2023-04-06T03:57:57;12.80;;;7.30;;
51901;SDS011;37929;53.218;6.548;2023-04-06T04:00:23;12.55;;;6.95;;
51901;SDS011;37929;53.218;6.548;2023-04-06T04:02:49;11.27;;;7.55;;
51901;SDS011;37929;53.218;6.548;2023-04-06T04:05:15;10.27;;;6.70;;
51901;SDS011;37929;53.218;6.548;2023-04-06T04:07:41;10.75;;;6.75;;
51901;SDS011;37929;53.218;6.548;2023-04-06T04:10:07;10.13;;;6.32;;
51901;SDS011;37929;53.218;6.548;2023-04-06T04:12:33;9.82;;;6.28;;
51901;SDS011;37929;53.218;6.548;2023-04-06T04:14:59;14.57;;;7.07;;
51901;SDS011;37929;53.218;6.548;2023-04-06T04:17:25;9.52;;;6.65;;
51901;SDS011;37929;53.218;6.548;2023-04-06T04:19:50;10.05;;;7.30;;
51901;SDS011;37929;53.218;6.548;2023-04-06T04:22:16;9.45;;;6.80;;
51901;SDS011;37929;53.218;6.548;2023-04-06T04:24:42;11.90;;;6.65;;
51901;SDS011;37929;53.218;6.548;2023-04-06T04:27:07;12.23;;;6.93;;
51901;SDS011;37929;53.218;6.548;2023-04-06T04:29:36;10.05;;;6.90;;
51901;SDS011;37929;53.218;6.548;2023-04-06T04:32:02;10.43;;;6.90;;
51901;SDS011;37929;53.218;6.548;2023-04-06T04:34:28;10.48;;;7.57;;
51901;SDS011;37929;53.218;6.548;2023-04-06T04:36:54;8.90;;;6.57;;
51901;SDS011;37929;53.218;6.548;2023-04-06T04:39:20;10.10;;;6.55;;
51901;SDS011;37929;53.218;6.548;2023-04-06T04:41:46;11.55;;;6.85;;
51901;SDS011;37929;53.218;6.548;2023-04-06T04:44:12;11.00;;;6.90;;
51901;SDS011;37929;53.218;6.548;2023-04-06T04:46:38;8.93;;;6.45;;
51901;SDS011;37929;53.218;6.548;2023-04-06T04:49:07;9.50;;;6.78;;
51901;SDS011;37929;53.218;6.548;2023-04-06T04:51:33;8.98;;;6.50;;
51901;SDS011;37929;53.218;6.548;2023-04-06T04:53:58;11.25;;;6.63;;
51901;SDS011;37929;53.218;6.548;2023-04-06T04:56:24;12.23;;;6.68;;
51901;SDS011;37929;53.218;6.548;2023-04-06T04:58:50;10.10;;;6.65;;
51901;SDS011;37929;53.218;6.548;2023-04-06T05:01:16;10.07;;;7.00;;
51901;SDS011;37929;53.218;6.548;2023-04-06T05:03:42;11.25;;;6.93;;
51901;SDS011;37929;53.218;6.548;2023-04-06T05:06:07;11.73;;;6.80;;
51901;SDS011;37929;53.218;6.548;2023-04-06T05:08:33;10.05;;;6.72;;
51901;SDS011;37929;53.218;6.548;2023-04-06T05:10:59;10.70;;;7.13;;
51901;SDS011;37929;53.218;6.548;2023-04-06T05:13:24;12.52;;;7.05;;
51901;SDS011;37929;53.218;6.548;2023-04-06T05:15:50;11.30;;;6.45;;
51901;SDS011;37929;53.218;6.548;2023-04-06T05:18:16;12.18;;;7.45;;
51901;SDS011;37929;53.218;6.548;2023-04-06T05:20:42;9.63;;;7.07;;
51901;SDS011;37929;53.218;6.548;2023-04-06T05:23:07;9.90;;;6.63;;
51901;SDS011;37929;53.218;6.548;2023-04-06T05:25:33;11.30;;;6.65;;
51901;SDS011;37929;53.218;6.548;2023-04-06T05:27:59;10.15;;;6.80;;
51901;SDS011;37929;53.218;6.548;2023-04-06T05:30:25;14.07;;;7.55;;
51901;SDS011;37929;53.218;6.548;2023-04-06T05:32:51;9.23;;;6.78;;
51901;SDS011;37929;53.218;6.548;2023-04-06T05:35:17;10.57;;;6.57;;
51901;SDS011;37929;53.218;6.548;2023-04-06T05:37:45;10.98;;;7.32;;
51901;SDS011;37929;53.218;6.548;2023-04-06T05:40:11;9.32;;;6.38;;
51901;SDS011;37929;53.218;6.548;2023-04-06T05:42:38;10.25;;;6.68;;
51901;SDS011;37929;53.218;6.548;2023-04-06T05:45:05;10.88;;;7.22;;
51901;SDS011;37929;53.218;6.548;2023-04-06T05:47:31;10.27;;;6.93;;
51901;SDS011;37929;53.218;6.548;2023-04-06T05:49:57;10.75;;;7.18;;
51901;SDS011;37929;53.218;6.548;2023-04-06T05:52:23;9.75;;;6.53;;
51901;SDS011;37929;53.218;6.548;2023-04-06T05:54:49;10.60;;;7.15;;
51901;SDS011;37929;53.218;6.548;2023-04-06T05:57:15;11.27;;;6.95;;
51901;SDS011;37929;53.218;6.548;2023-04-06T05:59:44;10.10;;;6.85;;
51901;SDS011;37929;53.218;6.548;2023-04-06T06:02:10;9.18;;;6.50;;
51901;SDS011;37929;53.218;6.548;2023-04-06T06:04:35;13.80;;;6.78;;
51901;SDS011;37929;53.218;6.548;2023-04-06T06:07:01;9.43;;;6.55;;
51901;SDS011;37929;53.218;6.548;2023-04-06T06:09:27;11.77;;;6.60;;
51901;SDS011;37929;53.218;6.548;2023-04-06T06:11:53;10.30;;;7.43;;
51901;SDS011;37929;53.218;6.548;2023-04-06T06:14:19;13.60;;;6.57;;
51901;SDS011;37929;53.218;6.548;2023-04-06T06:16:45;10.50;;;6.82;;
51901;SDS011;37929;53.218;6.548;2023-04-06T06:19:10;10.93;;;6.50;;
51901;SDS011;37929;53.218;6.548;2023-04-06T06:21:37;9.07;;;6.40;;
51901;SDS011;37929;53.218;6.548;2023-04-06T06:24:02;9.32;;;6.75;;
51901;SDS011;37929;53.218;6.548;2023-04-06T06:26:28;9.30;;;6.35;;
51901;SDS011;37929;53.218;6.548;2023-04-06T06:28:57;10.93;;;6.75;;
51901;SDS011;37929;53.218;6.548;2023-04-06T06:31:22;10.75;;;7.03;;
51901;SDS011;37929;53.218;6.548;2023-04-06T06:33:49;10.43;;;7.07;;
51901;SDS011;37929;53.218;6.548;2023-04-06T06:36:19;10.55;;;6.60;;
51901;SDS011;37929;53.218;6.548;2023-04-06T06:38:45;10.25;;;6.78;;
51901;SDS011;37929;53.218;6.548;2023-04-06T06:41:10;9.88;;;6.35;;
51901;SDS011;37929;53.218;6.548;2023-04-06T06:43:36;10.55;;;6.82;;
51901;SDS011;37929;53.218;6.548;2023-04-06T06:46:02;11.52;;;7.13;;
51901;SDS011;37929;53.218;6.548;2023-04-06T06:48:28;12.00;;;7.50;;
51901;SDS011;37929;53.218;6.548;2023-04-06T06:50:54;16.48;;;6.72;;
51901;SDS011;37929;53.218;6.548;2023-04-06T06:53:20;10.80;;;7.07;;
51901;SDS011;37929;53.218;6.548;2023-04-06T06:55:46;9.93;;;7.05;;
51901;SDS011;37929;53.218;6.548;2023-04-06T06:58:14;10.77;;;7.13;;
51901;SDS011;37929;53.218;6.548;2023-04-06T07:00:45;12.45;;;7.32;;
51901;SDS011;37929;53.218;6.548;2023-04-06T07:03:11;10.05;;;6.97;;
51901;SDS011;37929;53.218;6.548;2023-04-06T07:05:38;11.15;;;7.40;;
51901;SDS011;37929;53.218;6.548;2023-04-06T07:08:04;9.18;;;7.03;;
51901;SDS011;37929;53.218;6.548;2023-04-06T07:10:29;11.73;;;6.97;;
51901;SDS011;37929;53.218;6.548;2023-04-06T07:12:55;11.65;;;7.05;;
51901;SDS011;37929;53.218;6.548;2023-04-06T07:15:22;10.68;;;6.75;;
51901;SDS011;37929;53.218;6.548;2023-04-06T07:17:48;11.13;;;7.07;;
51901;SDS011;37929;53.218;6.548;2023-04-06T07:20:14;9.60;;;6.70;;
51901;SDS011;37929;53.218;6.548;2023-04-06T07:22:42;12.10;;;6.85;;
51901;SDS011;37929;53.218;6.548;2023-04-06T07:25:09;10.43;;;7.20;;
51901;SDS011;37929;53.218;6.548;2023-04-06T07:27:35;11.57;;;7.35;;
51901;SDS011;37929;53.218;6.548;2023-04-06T07:30:01;11.85;;;7.40;;
51901;SDS011;37929;53.218;6.548;2023-04-06T07:32:27;12.30;;;7.85;;
51901;SDS011;37929;53.218;6.548;2023-04-06T07:34:53;9.30;;;7.20;;
51901;SDS011;37929;53.218;6.548;2023-04-06T07:37:21;10.25;;;6.93;;
51901;SDS011;37929;53.218;6.548;2023-04-06T07:39:47;14.20;;;7.20;;
51901;SDS011;37929;53.218;6.548;2023-04-06T07:42:12;12.40;;;7.85;;
51901;SDS011;37929;53.218;6.548;2023-04-06T07:44:41;13.02;;;7.15;;
51901;SDS011;37929;53.218;6.548;2023-04-06T07:47:07;10.90;;;6.95;;
51901;SDS011;37929;53.218;6.548;2023-04-06T07:49:33;9.48;;;6.60;;
51901;SDS011;37929;53.218;6.548;2023-04-06T07:51:58;11.55;;;7.30;;
51901;SDS011;37929;53.218;6.548;2023-04-06T07:54:25;11.90;;;7.07;;
51901;SDS011;37929;53.218;6.548;2023-04-06T07:56:51;10.45;;;7.28;;
51901;SDS011;37929;53.218;6.548;2023-04-06T07:59:17;11.32;;;7.35;;
51901;SDS011;37929;53.218;6.548;2023-04-06T08:01:42;11.07;;;6.88;;
51901;SDS011;37929;53.218;6.548;2023-04-06T08:04:08;11.70;;;6.95;;
51901;SDS011;37929;53.218;6.548;2023-04-06T08:06:34;11.13;;;7.50;;
51901;SDS011;37929;53.218;6.548;2023-04-06T08:09:01;9.68;;;7.47;;
51901;SDS011;37929;53.218;6.548;2023-04-06T08:11:28;12.25;;;6.90;;
51901;SDS011;37929;53.218;6.548;2023-04-06T08:13:54;11.05;;;7.57;;
51901;SDS011;37929;53.218;6.548;2023-04-06T08:16:23;11.95;;;7.45;;
51901;SDS011;37929;53.218;6.548;2023-04-06T08:18:50;12.50;;;7.20;;
51901;SDS011;37929;53.218;6.548;2023-04-06T08:21:15;9.75;;;6.75;;
51901;SDS011;37929;53.218;6.548;2023-04-06T08:23:41;12.15;;;7.55;;
51901;SDS011;37929;53.218;6.548;2023-04-06T08:26:07;10.32;;;7.18;;
51901;SDS011;37929;53.218;6.548;2023-04-06T08:28:33;11.25;;;7.30;;
51901;SDS011;37929;53.218;6.548;2023-04-06T08:31:02;9.88;;;7.03;;
51901;SDS011;37929;53.218;6.548;2023-04-06T08:33:34;11.35;;;7.30;;
51901;SDS011;37929;53.218;6.548;2023-04-06T08:36:11;11.80;;;7.28;;
51901;SDS011;37929;53.218;6.548;2023-04-06T08:38:38;9.00;;;6.78;;
51901;SDS011;37929;53.218;6.548;2023-04-06T08:41:12;10.02;;;6.72;;
51901;SDS011;37929;53.218;6.548;2023-04-06T08:43:48;9.48;;;6.47;;
51901;SDS011;37929;53.218;6.548;2023-04-06T08:46:28;9.95;;;7.47;;
51901;SDS011;37929;53.218;6.548;2023-04-06T08:48:56;10.88;;;7.40;;
51901;SDS011;37929;53.218;6.548;2023-04-06T08:51:23;10.70;;;7.43;;
51901;SDS011;37929;53.218;6.548;2023-04-06T08:53:53;10.35;;;6.88;;
51901;SDS011;37929;53.218;6.548;2023-04-06T08:56:21;10.07;;;7.05;;
51901;SDS011;37929;53.218;6.548;2023-04-06T08:58:49;9.45;;;6.32;;
51901;SDS011;37929;53.218;6.548;2023-04-06T09:01:16;9.82;;;7.53;;
51901;SDS011;37929;53.218;6.548;2023-04-06T09:03:45;9.80;;;6.82;;
51901;SDS011;37929;53.218;6.548;2023-04-06T09:06:11;10.98;;;7.97;;
51901;SDS011;37929;53.218;6.548;2023-04-06T09:08:39;9.80;;;6.93;;
51901;SDS011;37929;53.218;6.548;2023-04-06T09:11:05;9.40;;;7.05;;
51901;SDS011;37929;53.218;6.548;2023-04-06T09:13:43;10.30;;;7.10;;
51901;SDS011;37929;53.218;6.548;2023-04-06T09:16:11;8.90;;;7.57;;
51901;SDS011;37929;53.218;6.548;2023-04-06T09:18:37;11.57;;;7.63;;
51901;SDS011;37929;53.218;6.548;2023-04-06T09:21:04;11.93;;;7.13;;
51901;SDS011;37929;53.218;6.548;2023-04-06T09:23:30;10.15;;;7.13;;
51901;SDS011;37929;53.218;6.548;2023-04-06T09:26:12;13.27;;;7.20;;
51901;SDS011;37929;53.218;6.548;2023-04-06T09:28:56;10.00;;;6.97;;
51901;SDS011;37929;53.218;6.548;2023-04-06T09:33:53;11.43;;;7.13;;
51901;SDS011;37929;53.218;6.548;2023-04-06T09:36:19;12.63;;;7.82;;
51901;SDS011;37929;53.218;6.548;2023-04-06T09:38:55;10.43;;;7.57;;
51901;SDS011;37929;53.218;6.548;2023-04-06T09:41:27;10.65;;;7.07;;
51901;SDS011;37929;53.218;6.548;2023-04-06T09:44:15;10.10;;;6.63;;
51901;SDS011;37929;53.218;6.548;2023-04-06T09:46:42;9.85;;;7.00;;
51901;SDS011;37929;53.218;6.548;2023-04-06T09:49:10;9.65;;;7.38;;
51901;SDS011;37929;53.218;6.548;2023-04-06T09:51:39;13.07;;;7.40;;
51901;SDS011;37929;53.218;6.548;2023-04-06T09:54:20;10.38;;;7.55;;
51901;SDS011;37929;53.218;6.548;2023-04-06T09:56:50;11.43;;;7.50;;
51901;SDS011;37929;53.218;6.548;2023-04-06T09:59:26;10.63;;;7.72;;
51901;SDS011;37929;53.218;6.548;2023-04-06T10:02:06;12.07;;;7.88;;
51901;SDS011;37929;53.218;6.548;2023-04-06T10:07:10;15.68;;;8.90;;
51901;SDS011;37929;53.218;6.548;2023-04-06T10:09:37;11.85;;;7.90;;
51901;SDS011;37929;53.218;6.548;2023-04-06T10:12:04;13.30;;;8.55;;
51901;SDS011;37929;53.218;6.548;2023-04-06T10:14:32;11.30;;;8.18;;
51901;SDS011;37929;53.218;6.548;2023-04-06T10:17:00;11.57;;;7.70;;
51901;SDS011;37929;53.218;6.548;2023-04-06T10:19:32;11.65;;;7.53;;
51901;SDS011;37929;53.218;6.548;2023-04-06T10:22:02;14.15;;;9.25;;
51901;SDS011;37929;53.218;6.548;2023-04-06T10:24:31;12.57;;;8.55;;
51901;SDS011;37929;53.218;6.548;2023-04-06T10:27:06;12.25;;;8.75;;
51901;SDS011;37929;53.218;6.548;2023-04-06T10:29:44;13.80;;;8.20;;
51901;SDS011;37929;53.218;6.548;2023-04-06T10:32:12;15.40;;;9.25;;
51901;SDS011;37929;53.218;6.548;2023-04-06T10:34:38;12.80;;;8.60;;
51901;SDS011;37929;53.218;6.548;2023-04-06T10:37:14;14.30;;;9.15;;
51901;SDS011;37929;53.218;6.548;2023-04-06T10:39:47;13.13;;;9.43;;
51901;SDS011;37929;53.218;6.548;2023-04-06T10:42:23;14.32;;;9.27;;
51901;SDS011;37929;53.218;6.548;2023-04-06T10:44:50;19.08;;;10.52;;
51901;SDS011;37929;53.218;6.548;2023-04-06T10:47:16;16.75;;;10.50;;
51901;SDS011;37929;53.218;6.548;2023-04-06T10:49:43;17.63;;;11.32;;
51901;SDS011;37929;53.218;6.548;2023-04-06T10:52:09;16.15;;;10.38;;
51901;SDS011;37929;53.218;6.548;2023-04-06T10:54:34;15.55;;;10.80;;
51901;SDS011;37929;53.218;6.548;2023-04-06T10:57:08;19.05;;;11.73;;
51901;SDS011;37929;53.218;6.548;2023-04-06T10:59:34;18.65;;;11.68;;
51901;SDS011;37929;53.218;6.548;2023-04-06T11:02:00;17.92;;;11.60;;
51901;SDS011;37929;53.218;6.548;2023-04-06T11:04:26;19.33;;;12.63;;
51901;SDS011;37929;53.218;6.548;2023-04-06T11:06:51;21.73;;;13.45;;
51901;SDS011;37929;53.218;6.548;2023-04-06T11:09:27;23.52;;;12.43;;
51901;SDS011;37929;53.218;6.548;2023-04-06T11:11:53;22.50;;;12.48;;
51901;SDS011;37929;53.218;6.548;2023-04-06T11:14:21;22.65;;;13.25;;
51901;SDS011;37929;53.218;6.548;2023-04-06T11:16:47;22.27;;;13.73;;
51901;SDS011;37929;53.218;6.548;2023-04-06T11:19:14;23.35;;;14.88;;
51901;SDS011;37929;53.218;6.548;2023-04-06T11:21:41;27.63;;;15.65;;
51901;SDS011;37929;53.218;6.548;2023-04-06T11:24:12;23.77;;;14.57;;
51901;SDS011;37929;53.218;6.548;2023-04-06T11:29:15;24.75;;;15.40;;
51901;SDS011;37929;53.218;6.548;2023-04-06T11:31:44;28.48;;;16.25;;
51901;SDS011;37929;53.218;6.548;2023-04-06T11:34:21;30.30;;;18.10;;
51901;SDS011;37929;53.218;6.548;2023-04-06T11:36:49;25.88;;;16.25;;
51901;SDS011;37929;53.218;6.548;2023-04-06T11:39:20;27.05;;;14.95;;
51901;SDS011;37929;53.218;6.548;2023-04-06T11:41:52;25.23;;;15.98;;
51901;SDS011;37929;53.218;6.548;2023-04-06T11:47:00;25.48;;;15.30;;
51901;SDS011;37929;53.218;6.548;2023-04-06T11:49:27;26.35;;;15.85;;
51901;SDS011;37929;53.218;6.548;2023-04-06T11:51:54;25.27;;;15.57;;
51901;SDS011;37929;53.218;6.548;2023-04-06T11:54:34;26.02;;;15.85;;
51901;SDS011;37929;53.218;6.548;2023-04-06T11:57:05;23.77;;;15.55;;
51901;SDS011;37929;53.218;6.548;2023-04-06T11:59:31;26.23;;;16.13;;
51901;SDS011;37929;53.218;6.548;2023-04-06T12:01:57;25.55;;;15.57;;
51901;SDS011;37929;53.218;6.548;2023-04-06T12:04:23;24.02;;;14.90;;
51901;SDS011;37929;53.218;6.548;2023-04-06T12:06:50;24.33;;;15.43;;
51901;SDS011;37929;53.218;6.548;2023-04-06T12:09:16;26.05;;;15.63;;
51901;SDS011;37929;53.218;6.548;2023-04-06T12:11:44;26.45;;;15.75;;
51901;SDS011;37929;53.218;6.548;2023-04-06T12:14:11;25.90;;;16.55;;
51901;SDS011;37929;53.218;6.548;2023-04-06T12:16:37;23.13;;;14.73;;
51901;SDS011;37929;53.218;6.548;2023-04-06T12:19:04;23.70;;;14.02;;
51901;SDS011;37929;53.218;6.548;2023-04-06T12:21:31;25.75;;;15.95;;
51901;SDS011;37929;53.218;6.548;2023-04-06T12:23:57;27.98;;;15.27;;
51901;SDS011;37929;53.218;6.548;2023-04-06T12:26:23;23.60;;;14.60;;
51901;SDS011;37929;53.218;6.548;2023-04-06T12:28:50;22.70;;;14.25;;
51901;SDS011;37929;53.218;6.548;2023-04-06T12:31:16;22.77;;;14.63;;
51901;SDS011;37929;53.218;6.548;2023-04-06T12:33:43;22.75;;;14.73;;
51901;SDS011;37929;53.218;6.548;2023-04-06T12:36:15;23.27;;;15.50;;
51901;SDS011;37929;53.218;6.548;2023-04-06T12:38:43;23.23;;;15.30;;
51901;SDS011;37929;53.218;6.548;2023-04-06T12:41:12;25.00;;;14.85;;
51901;SDS011;37929;53.218;6.548;2023-04-06T12:43:42;26.25;;;15.30;;
51901;SDS011;37929;53.218;6.548;2023-04-06T12:46:08;25.73;;;15.38;;
51901;SDS011;37929;53.218;6.548;2023-04-06T12:48:35;23.23;;;15.23;;
51901;SDS011;37929;53.218;6.548;2023-04-06T12:51:02;21.73;;;14.68;;
51901;SDS011;37929;53.218;6.548;2023-04-06T12:53:29;24.48;;;14.70;;
51901;SDS011;37929;53.218;6.548;2023-04-06T12:55:55;21.90;;;15.48;;
51901;SDS011;37929;53.218;6.548;2023-04-06T12:58:23;25.30;;;14.77;;
51901;SDS011;37929;53.218;6.548;2023-04-06T13:00:51;24.00;;;14.90;;
51901;SDS011;37929;53.218;6.548;2023-04-06T13:03:18;24.25;;;14.82;;
51901;SDS011;37929;53.218;6.548;2023-04-06T13:05:44;25.55;;;15.40;;
51901;SDS011;37929;53.218;6.548;2023-04-06T13:08:19;25.15;;;14.90;;
51901;SDS011;37929;53.218;6.548;2023-04-06T13:10:49;24.48;;;15.50;;
51901;SDS011;37929;53.218;6.548;2023-04-06T13:13:24;24.15;;;15.32;;
51901;SDS011;37929;53.218;6.548;2023-04-06T13:15:52;24.95;;;16.98;;
51901;SDS011;37929;53.218;6.548;2023-04-06T13:18:24;23.35;;;15.27;;
51901;SDS011;37929;53.218;6.548;2023-04-06T13:20:50;22.55;;;14.88;;
51901;SDS011;37929;53.218;6.548;2023-04-06T13:23:16;23.67;;;14.30;;
51901;SDS011;37929;53.218;6.548;2023-04-06T13:25:41;25.27;;;14.95;;
51901;SDS011;37929;53.218;6.548;2023-04-06T13:28:07;23.70;;;15.32;;
51901;SDS011;37929;53.218;6.548;2023-04-06T13:30:35;26.98;;;15.13;;
51901;SDS011;37929;53.218;6.548;2023-04-06T13:33:01;24.65;;;14.35;;
51901;SDS011;37929;53.218;6.548;2023-04-06T13:35:28;25.83;;;14.90;;
51901;SDS011;37929;53.218;6.548;2023-04-06T13:38:00;26.17;;;15.90;;
51901;SDS011;37929;53.218;6.548;2023-04-06T13:40:27;25.50;;;14.20;;
51901;SDS011;37929;53.218;6.548;2023-04-06T13:42:52;24.83;;;14.35;;
51901;SDS011;37929;53.218;6.548;2023-04-06T13:45:18;22.63;;;14.07;;
51901;SDS011;37929;53.218;6.548;2023-04-06T13:47:44;23.98;;;14.95;;
51901;SDS011;37929;53.218;6.548;2023-04-06T13:50:10;23.15;;;14.35;;
51901;SDS011;37929;53.218;6.548;2023-04-06T13:52:36;23.15;;;14.40;;
51901;SDS011;37929;53.218;6.548;2023-04-06T13:55:02;18.63;;;12.60;;
51901;SDS011;37929;53.218;6.548;2023-04-06T13:57:28;19.88;;;12.40;;
51901;SDS011;37929;53.218;6.548;2023-04-06T13:59:55;18.95;;;11.70;;
51901;SDS011;37929;53.218;6.548;2023-04-06T14:02:20;18.70;;;11.90;;
51901;SDS011;37929;53.218;6.548;2023-04-06T14:04:52;20.02;;;11.43;;
51901;SDS011;37929;53.218;6.548;2023-04-06T14:07:19;19.38;;;12.00;;
51901;SDS011;37929;53.218;6.548;2023-04-06T14:09:45;15.68;;;10.57;;
51901;SDS011;37929;53.218;6.548;2023-04-06T14:12:11;16.40;;;10.10;;
51901;SDS011;37929;53.218;6.548;2023-04-06T14:14:37;13.63;;;9.70;;
51901;SDS011;37929;53.218;6.548;2023-04-06T14:17:03;14.77;;;9.95;;
51901;SDS011;37929;53.218;6.548;2023-04-06T14:19:29;18.98;;;11.25;;
51901;SDS011;37929;53.218;6.548;2023-04-06T14:21:58;18.48;;;11.02;;
51901;SDS011;37929;53.218;6.548;2023-04-06T14:24:24;21.17;;;10.77;;
51901;SDS011;37929;53.218;6.548;2023-04-06T14:26:49;17.67;;;10.98;;
51901;SDS011;37929;53.218;6.548;2023-04-06T14:29:15;17.27;;;10.77;;
51901;SDS011;37929;53.218;6.548;2023-04-06T14:31:41;20.50;;;11.38;;
51901;SDS011;37929;53.218;6.548;2023-04-06T14:34:07;21.48;;;10.93;;
51901;SDS011;37929;53.218;6.548;2023-04-06T14:36:33;17.17;;;10.95;;
51901;SDS011;37929;53.218;6.548;2023-04-06T14:39:03;17.40;;;11.00;;
51901;SDS011;37929;53.218;6.548;2023-04-06T14:41:31;17.40;;;10.95;;
51901;SDS011;37929;53.218;6.548;2023-04-06T14:43:57;16.13;;;10.55;;